Time;durP1;ratioP1;P1;durP2;ratioP2;P2;SDS_P1;SDS_P2;PMS_P1;PMS_P2;Temp;Humidity;BMP_temperature;BMP_pressure;BME280_temperature;BME280_humidity;BME280_pressure;Samples;Min_cycle;Max_cycle;Signal;HPM_P1;HPM_P2
2022/05/18 00:02:09;;;;;;;2.67;1.70;;;;;;;6.21;42.77;101187.47;1824449;78;27474;-68
2022/05/18 00:04:40;;;;;;;3.02;1.72;;;;;;;6.19;42.74;101189.61;1824431;78;25528;-69
2022/05/18 00:07:06;;;;;;;4.40;1.50;;;;;;;6.15;42.88;101192.80;1821539;78;25400;-67
2022/05/18 00:09:32;;;;;;;3.10;1.60;;;;;;;6.12;43.21;101195.19;1824455;78;25599;-67
2022/05/18 00:11:58;;;;;;;5.03;1.72;;;;;;;6.08;43.13;101193.55;1824492;78;25408;-68
2022/05/18 00:14:24;;;;;;;4.53;1.85;;;;;;;6.06;42.97;101190.83;1824480;78;27535;-68
2022/05/18 00:16:51;;;;;;;3.25;1.80;;;;;;;6.04;42.92;101198.34;1824359;78;25836;-68
2022/05/18 00:19:17;;;;;;;2.40;1.60;;;;;;;6.00;42.86;101200.73;1824489;78;25503;-68
2022/05/18 00:21:44;;;;;;;2.42;1.50;;;;;;;5.97;43.13;101197.21;1824427;78;25699;-69
2022/05/18 00:24:10;;;;;;;2.30;1.70;;;;;;;5.95;43.15;101210.06;1824633;78;25169;-69
2022/05/18 00:26:37;;;;;;;2.52;1.70;;;;;;;5.92;43.22;101210.02;1824420;78;27437;-69
2022/05/18 00:29:03;;;;;;;3.83;1.90;;;;;;;5.86;43.42;101208.38;1824375;78;25982;-69
2022/05/18 00:31:29;;;;;;;6.40;1.90;;;;;;;5.84;43.34;101209.17;1824630;78;25509;-69
2022/05/18 00:33:55;;;;;;;1.62;1.32;;;;;;;5.80;43.52;101210.73;1824512;78;25658;-69
2022/05/18 00:36:22;;;;;;;3.27;1.77;;;;;;;5.76;43.88;101218.48;1824554;78;25566;-68
2022/05/18 00:38:48;;;;;;;2.83;1.77;;;;;;;5.74;44.02;101215.25;1824473;78;27474;-68
2022/05/18 00:41:14;;;;;;;3.10;1.77;;;;;;;5.70;44.11;101218.14;1824269;78;27415;-68
2022/05/18 00:43:43;;;;;;;3.90;1.60;;;;;;;5.66;44.18;101217.04;1824435;78;25528;-68
2022/05/18 00:46:15;;;;;;;2.27;1.40;;;;;;;5.63;44.08;101226.94;1824551;78;25431;-70
2022/05/18 00:48:43;;;;;;;3.00;1.75;;;;;;;5.61;44.06;101229.87;1824455;78;25586;-69
2022/05/18 00:51:20;;;;;;;1.98;1.57;;;;;;;5.57;44.52;101231.98;1824419;78;27528;-69
2022/05/18 00:54:04;;;;;;;4.58;1.80;;;;;;;5.55;44.68;101234.09;1822491;78;25373;-68
2022/05/18 00:56:36;;;;;;;4.65;2.00;;;;;;;5.51;45.08;101234.33;1824415;78;25582;-68
2022/05/18 00:59:08;;;;;;;3.47;1.90;;;;;;;5.48;44.94;101235.62;1824437;78;25574;-68
2022/05/18 01:01:35;;;;;;;2.52;1.52;;;;;;;5.43;44.81;101240.94;1824497;78;25610;-69
2022/05/18 01:04:04;;;;;;;4.50;2.10;;;;;;;5.37;44.77;101247.32;1824417;78;27532;-68
2022/05/18 01:06:47;;;;;;;2.90;1.70;;;;;;;5.35;45.24;101258.30;1824233;78;25783;-68
2022/05/18 01:09:23;;;;;;;5.17;1.70;;;;;;;5.31;45.76;101251.83;1823858;78;25381;-68
2022/05/18 01:11:50;;;;;;;3.10;1.80;;;;;;;5.27;46.00;101255.25;1823822;78;26113;-68
2022/05/18 01:14:21;;;;;;;2.22;1.52;;;;;;;5.26;46.09;101267.02;1823888;78;25463;-68
2022/05/18 01:16:50;;;;;;;3.92;1.55;;;;;;;5.21;46.22;101271.28;1823830;78;27534;-68
2022/05/18 01:19:45;;;;;;;3.87;2.00;;;;;;;5.18;46.45;101274.45;1823836;78;25907;-69
2022/05/18 01:22:26;;;;;;;3.10;1.75;;;;;;;5.13;46.04;101267.69;1822876;78;25387;-68
2022/05/18 01:25:15;;;;;;;3.65;1.92;;;;;;;5.10;46.00;101270.05;1823789;78;25697;-67
2022/05/18 01:27:42;;;;;;;3.00;2.10;;;;;;;5.08;46.54;101266.81;1823773;78;25391;-67
2022/05/18 01:30:10;;;;;;;3.35;1.62;;;;;;;5.03;46.89;101267.01;1823792;78;27522;-67
2022/05/18 01:32:47;;;;;;;2.83;1.80;;;;;;;5.01;47.36;101275.03;1823705;78;25536;-68
2022/05/18 01:35:28;;;;;;;3.65;2.02;;;;;;;4.98;46.87;101280.89;1823781;78;25349;-68
2022/05/18 01:37:57;;;;;;;2.83;1.50;;;;;;;4.96;47.05;101281.67;1823794;78;25454;-68
2022/05/18 01:40:50;;;;;;;4.12;2.10;;;;;;;4.92;47.78;101281.86;1823966;78;25544;-67
2022/05/18 01:43:40;;;;;;;4.53;1.75;;;;;;;4.86;48.08;101283.12;1823841;78;28340;-67
2022/05/18 01:46:12;;;;;;;4.55;1.75;;;;;;;4.83;48.10;101286.83;1819897;78;25573;-68
2022/05/18 01:48:44;;;;;;;3.42;1.57;;;;;;;4.78;48.56;101289.44;1823810;78;25584;-69
2022/05/18 01:51:15;;;;;;;7.42;2.00;;;;;;;4.76;48.47;101294.24;1823794;78;25452;-69
2022/05/18 01:53:41;;;;;;;7.37;1.82;;;;;;;4.72;48.68;101289.91;1823863;78;25383;-69
2022/05/18 01:56:08;;;;;;;2.92;1.55;;;;;;;4.67;48.92;101291.97;1825533;78;27477;-69
2022/05/18 01:58:35;;;;;;;1.57;1.40;;;;;;;4.64;48.74;101289.77;1829849;78;25382;-69
2022/05/18 02:01:03;;;;;;;2.67;1.90;;;;;;;4.60;48.46;101293.20;1829897;77;25383;-68
2022/05/18 02:03:30;;;;;;;3.52;2.05;;;;;;;4.57;49.06;101292.34;1829818;77;25400;-68
2022/05/18 02:05:57;;;;;;;5.12;1.98;;;;;;;4.53;48.86;101300.06;1829936;77;25388;-69
2022/05/18 02:08:23;;;;;;;4.87;1.70;;;;;;;4.51;49.39;101300.02;1829942;78;27469;-68
2022/05/18 02:10:50;;;;;;;2.98;1.80;;;;;;;4.45;49.49;101301.80;1829870;78;25441;-68
2022/05/18 02:13:17;;;;;;;3.50;2.20;;;;;;;4.41;49.81;101297.97;1829870;77;25375;-69
2022/05/18 02:15:44;;;;;;;4.37;2.30;;;;;;;4.36;49.78;101297.88;1829808;77;25409;-68
2022/05/18 02:18:11;;;;;;;3.40;1.98;;;;;;;4.33;50.21;101299.20;1829835;77;25381;-69
2022/05/18 02:20:38;;;;;;;6.00;2.27;;;;;;;4.30;50.33;101298.34;1829935;78;27494;-71
2022/05/18 02:23:05;;;;;;;2.67;1.85;;;;;;;4.26;50.71;101307.92;1829803;77;25636;-68
2022/05/18 02:25:33;;;;;;;4.70;2.25;;;;;;;4.23;50.59;101303.84;1829845;78;25385;-68
2022/05/18 02:28:00;;;;;;;4.35;1.95;;;;;;;4.20;50.52;101307.00;1829807;77;25365;-68
2022/05/18 02:30:27;;;;;;;6.15;2.45;;;;;;;4.19;50.56;101312.09;1829883;77;25618;-69
2022/05/18 02:32:53;;;;;;;2.95;2.00;;;;;;;4.17;50.95;101320.06;1829835;78;27380;-68
2022/05/18 02:35:20;;;;;;;6.40;2.20;;;;;;;4.17;50.83;101320.06;1829791;77;25647;-68
2022/05/18 02:37:46;;;;;;;3.37;2.20;;;;;;;4.15;50.95;101320.83;1829858;77;25423;-68
2022/05/18 02:40:13;;;;;;;4.53;2.42;;;;;;;4.11;51.20;101320.51;1829793;78;25409;-68
2022/05/18 02:42:39;;;;;;;6.33;2.22;;;;;;;4.08;51.50;101314.28;1829911;77;25442;-69
2022/05/18 02:45:08;;;;;;;5.05;2.08;;;;;;;4.05;51.23;101322.29;1829821;78;27430;-69
2022/05/18 02:47:34;;;;;;;3.65;1.80;;;;;;;4.03;51.71;101331.06;1829895;78;25587;-69
2022/05/18 02:50:01;;;;;;;3.45;2.30;;;;;;;3.99;51.95;101334.48;1829879;77;25601;-69
2022/05/18 02:52:27;;;;;;;4.67;2.20;;;;;;;3.96;51.80;101337.09;1829838;77;25507;-69
2022/05/18 02:57:38;;;;;;;1.67;1.50;;;;;;;3.91;52.11;101343.16;1829813;78;28251;-70
2022/05/18 03:00:07;;;;;;;5.00;3.52;;;;;;;3.89;52.19;101351.16;1829792;77;25582;-70
2022/05/18 03:02:35;;;;;;;3.67;2.00;;;;;;;3.87;52.06;101350.05;1830000;77;25472;-70
2022/05/18 03:05:01;;;;;;;5.60;2.10;;;;;;;3.85;52.05;101342.79;1828459;77;25841;-67
2022/05/18 03:07:28;;;;;;;3.40;1.82;;;;;;;3.83;52.09;101353.43;1815086;77;25496;-70
2022/05/18 03:09:54;;;;;;;3.27;1.98;;;;;;;3.80;51.75;101357.91;1829760;77;27450;-70
2022/05/18 03:12:20;;;;;;;2.75;1.67;;;;;;;3.78;52.03;101358.17;1829777;77;25514;-69
2022/05/18 03:14:46;;;;;;;4.33;1.95;;;;;;;3.75;52.05;101362.66;1829822;77;29675;-70
2022/05/18 03:17:13;;;;;;;4.12;1.75;;;;;;;3.73;51.82;101364.77;1829728;77;25765;-70
2022/05/18 03:19:39;;;;;;;5.60;2.10;;;;;;;3.72;52.57;101375.17;1829804;78;25386;-68
2022/05/18 03:24:50;;;;;;;2.45;1.82;;;;;;;3.67;53.00;101385.23;1829765;78;25863;-69
2022/05/18 03:27:17;;;;;;;3.65;2.35;;;;;;;3.64;53.62;101383.02;1829788;77;25430;-69
2022/05/18 03:29:43;;;;;;;4.67;2.58;;;;;;;3.64;53.97;101388.38;1829771;78;25771;-69
2022/05/18 03:32:09;;;;;;;5.92;2.30;;;;;;;3.64;53.97;101392.39;1829843;77;32294;-69
2022/05/18 03:34:35;;;;;;;3.02;2.22;;;;;;;3.66;54.17;101401.02;1829847;77;27782;-69
2022/05/18 03:37:03;;;;;;;7.05;2.45;;;;;;;3.66;54.29;101401.52;1829647;78;25513;-68
2022/05/18 03:39:29;;;;;;;4.87;2.25;;;;;;;3.69;54.48;101410.42;1829819;77;25381;-68
2022/05/18 03:41:57;;;;;;;6.35;2.58;;;;;;;3.71;54.79;101413.67;1829781;77;25851;-70
2022/05/18 03:44:23;;;;;;;6.08;2.80;;;;;;;3.74;54.99;101421.23;1813603;78;25544;-70
2022/05/18 03:46:50;;;;;;;4.80;2.35;;;;;;;3.73;55.30;101415.08;1829789;78;27468;-70
2022/05/18 03:49:16;;;;;;;4.17;2.70;;;;;;;3.77;55.08;101419.97;1829690;77;27353;-70
2022/05/18 03:51:42;;;;;;;3.80;2.60;;;;;;;3.80;55.39;101426.16;1829852;77;25371;-70
2022/05/18 03:54:08;;;;;;;5.40;2.95;;;;;;;3.82;55.72;101427.56;1829761;77;25621;-70
2022/05/18 03:56:35;;;;;;;4.55;2.75;;;;;;;3.88;55.77;101443.20;1829786;77;25424;-68
2022/05/18 03:59:01;;;;;;;7.65;3.83;;;;;;;3.89;55.87;101449.66;1829791;78;29595;-68
2022/05/18 04:01:27;;;;;;;6.25;3.27;;;;;;;3.95;56.13;101458.62;1829787;78;25512;-69
2022/05/18 04:03:54;;;;;;;5.83;3.22;;;;;;;4.01;56.01;101462.22;1829794;78;25374;-68
2022/05/18 04:06:20;;;;;;;8.08;3.62;;;;;;;4.04;56.18;101466.58;1829700;78;25594;-69
2022/05/18 04:08:46;;;;;;;6.42;3.42;;;;;;;4.12;56.61;101466.74;1829774;78;25545;-69
2022/05/18 04:11:13;;;;;;;7.60;3.75;;;;;;;4.19;56.58;101467.41;1829788;78;27535;-69
2022/05/18 04:13:40;;;;;;;7.90;3.90;;;;;;;4.26;56.53;101468.63;1829619;77;25856;-69
2022/05/18 04:16:06;;;;;;;9.23;4.20;;;;;;;4.33;56.67;101469.83;1829732;78;25360;-69
2022/05/18 04:18:32;;;;;;;11.33;4.78;;;;;;;4.38;56.62;101464.03;1829746;77;25706;-69
2022/05/18 04:21:01;;;;;;;9.83;4.30;;;;;;;4.46;56.41;101466.84;1829788;78;25353;-69
2022/05/18 04:23:28;;;;;;;7.75;4.12;;;;;;;4.55;56.69;101474.00;1829781;78;27298;-69
2022/05/18 04:25:56;;;;;;;5.47;3.98;;;;;;;4.64;56.86;101477.91;1829692;77;25574;-69
2022/05/18 04:28:22;;;;;;;7.65;3.20;;;;;;;4.72;56.82;101473.50;1829767;77;25508;-69
2022/05/18 04:30:49;;;;;;;8.65;3.30;;;;;;;4.81;56.80;101473.92;1829738;77;34657;-69
2022/05/18 04:33:20;;;;;;;5.67;3.02;;;;;;;4.89;56.95;101476.22;1829823;78;25555;-69
2022/05/18 04:35:50;;;;;;;5.22;3.30;;;;;;;4.98;56.91;101480.11;1829723;77;27580;-69
2022/05/18 04:38:20;;;;;;;4.35;2.75;;;;;;;5.09;56.71;101481.63;1829815;77;25560;-68
2022/05/18 04:40:47;;;;;;;7.33;2.75;;;;;;;5.19;56.85;101483.13;1829928;77;25362;-68
2022/05/18 04:43:17;;;;;;;3.75;2.37;;;;;;;5.28;57.03;101480.34;1829813;78;25556;-68
2022/05/18 04:45:46;;;;;;;5.47;2.27;;;;;;;5.38;56.97;101484.53;1830105;77;25452;-68
2022/05/18 04:48:17;;;;;;;4.83;2.25;;;;;;;5.47;56.65;101488.95;1830062;78;27452;-68
2022/05/18 04:50:45;;;;;;;4.70;2.40;;;;;;;5.57;56.71;101489.64;1829726;77;25525;-68
2022/05/18 04:53:12;;;;;;;5.92;1.90;;;;;;;5.67;56.66;101495.16;1829924;78;25424;-68
2022/05/18 04:55:39;;;;;;;7.72;2.30;;;;;;;5.77;56.62;101494.47;1829987;77;25536;-68
2022/05/18 04:58:06;;;;;;;7.55;2.15;;;;;;;5.88;56.49;101496.79;1829840;77;25580;-68
2022/05/18 05:00:32;;;;;;;4.45;2.22;;;;;;;5.98;56.36;101495.07;1829931;78;27373;-67
2022/05/18 05:03:00;;;;;;;7.05;2.10;;;;;;;6.08;56.21;101491.72;1829801;78;25768;-68
2022/05/18 05:05:27;;;;;;;6.37;2.02;;;;;;;6.19;56.17;101495.88;1829908;77;25549;-68
2022/05/18 05:07:55;;;;;;;4.25;2.50;;;;;;;6.27;55.95;101482.00;1829954;77;25566;-68
2022/05/18 05:10:22;;;;;;;7.05;1.57;;;;;;;6.37;55.61;101474.06;1829916;77;25647;-68
2022/05/18 05:12:49;;;;;;;2.80;1.57;;;;;;;6.49;55.64;101482.79;1829906;77;27484;-70
2022/05/18 05:15:16;;;;;;;3.02;1.98;;;;;;;6.62;55.49;101479.42;1829757;78;25380;-70
2022/05/18 05:17:43;;;;;;;6.12;1.80;;;;;;;6.73;55.23;101480.61;1829944;78;25390;-69
2022/05/18 05:20:11;;;;;;;6.00;2.45;;;;;;;6.87;55.12;101480.20;1829885;77;26209;-68
2022/05/18 05:22:38;;;;;;;4.03;1.70;;;;;;;7.01;54.92;101482.74;1829932;77;25545;-69
2022/05/18 05:25:06;;;;;;;5.83;1.70;;;;;;;7.16;54.57;101482.07;1829885;78;27509;-69
2022/05/18 05:27:32;;;;;;;5.78;1.70;;;;;;;7.31;54.32;101484.08;1829824;78;25859;-69
2022/05/18 05:29:58;;;;;;;7.40;2.08;;;;;;;7.46;53.94;101490.12;1829889;77;25540;-69
2022/05/18 05:32:25;;;;;;;5.97;1.87;;;;;;;7.60;53.67;101489.93;1856628;77;25509;-70
2022/05/18 05:34:53;;;;;;;5.03;1.45;;;;;;;7.76;53.48;101497.56;1863823;77;25464;-69
2022/05/18 05:37:19;;;;;;;4.97;1.50;;;;;;;7.96;53.41;101496.88;1863629;77;27533;-70
2022/05/18 05:39:45;;;;;;;2.77;1.62;;;;;;;8.17;53.37;101500.48;1863510;77;32953;-68
2022/05/18 05:42:11;;;;;;;5.92;1.87;;;;;;;8.41;52.91;101505.41;1863634;77;25623;-68
2022/05/18 05:44:37;;;;;;;3.65;1.95;;;;;;;8.66;52.76;101506.60;1863546;77;25479;-70
2022/05/18 05:47:08;;;;;;;6.28;1.87;;;;;;;8.89;52.30;101513.41;1863658;77;26257;-69
2022/05/18 05:49:34;;;;;;;4.87;1.95;;;;;;;9.09;51.92;101508.55;1863618;77;27483;-68
2022/05/18 05:52:00;;;;;;;2.98;1.55;;;;;;;9.30;51.60;101513.43;1863481;77;25637;-68
2022/05/18 05:54:27;;;;;;;6.10;2.35;;;;;;;9.52;51.33;101522.05;1863261;77;25434;-69
2022/05/18 05:56:53;;;;;;;3.83;1.60;;;;;;;9.72;50.69;101525.80;1860270;77;25690;-68
2022/05/18 05:59:21;;;;;;;3.52;1.65;;;;;;;9.85;50.19;101523.88;1794310;78;25550;-68
2022/05/18 06:01:48;;;;;;;3.58;2.08;;;;;;;9.99;49.73;101523.31;1823918;78;27454;-69
2022/05/18 06:04:15;;;;;;;7.62;1.85;;;;;;;10.15;49.66;101527.60;1823799;78;25644;-71
2022/05/18 06:06:41;;;;;;;4.70;1.75;;;;;;;10.31;49.25;101540.52;1824007;78;25645;-68
2022/05/18 06:09:08;;;;;;;3.52;1.42;;;;;;;10.48;48.90;101539.41;1824003;78;25477;-67
2022/05/18 06:11:36;;;;;;;5.30;1.80;;;;;;;10.57;48.40;101542.61;1817286;78;25370;-68
2022/05/18 06:14:03;;;;;;;3.50;1.70;;;;;;;10.70;48.23;101541.17;1792876;79;27444;-69
2022/05/18 06:16:29;;;;;;;4.30;1.57;;;;;;;10.83;47.72;101546.53;1794170;80;25642;-68
2022/05/18 06:18:59;;;;;;;3.52;1.70;;;;;;;10.98;47.81;101549.14;1790415;80;25608;-69
2022/05/18 06:21:25;;;;;;;3.83;2.17;;;;;;;11.14;47.49;101551.74;1792533;80;25547;-69
2022/05/18 06:23:51;;;;;;;3.62;1.50;;;;;;;11.35;47.22;101559.16;1790611;80;25700;-70
2022/05/18 06:26:17;;;;;;;4.80;1.37;;;;;;;11.54;46.56;101569.58;1790999;80;27464;-70
2022/05/18 06:28:43;;;;;;;2.00;1.20;;;;;;;11.74;46.09;101563.14;1789845;80;25783;-68
2022/05/18 06:31:10;;;;;;;5.12;1.70;;;;;;;11.90;45.57;101561.64;1792852;80;25939;-70
2022/05/18 06:33:36;;;;;;;3.08;1.30;;;;;;;12.09;45.40;101569.91;1789741;80;26247;-69
2022/05/18 06:36:03;;;;;;;6.35;1.30;;;;;;;12.30;45.16;101575.34;1791538;80;25697;-68
2022/05/18 06:38:30;;;;;;;3.58;1.35;;;;;;;12.51;44.70;101581.34;1792643;80;27505;-70
2022/05/18 06:43:42;;;;;;;2.20;1.35;;;;;;;12.95;44.28;101576.67;1826381;78;25637;-68
2022/05/18 06:46:09;;;;;;;3.02;1.10;;;;;;;13.21;43.93;101577.66;1826602;78;25661;-68
2022/05/18 06:48:35;;;;;;;3.75;1.47;;;;;;;13.44;43.39;101581.41;1826596;78;25713;-68
2022/05/18 06:51:02;;;;;;;4.97;1.50;;;;;;;13.57;42.93;101578.47;1760721;78;27453;-68
2022/05/18 06:53:28;;;;;;;11.10;1.90;;;;;;;13.79;42.14;101577.28;1793575;79;25675;-68
2022/05/18 06:55:54;;;;;;;3.12;1.60;;;;;;;13.99;41.64;101579.37;1793837;80;25699;-68
2022/05/18 06:58:20;;;;;;;7.55;1.50;;;;;;;14.18;41.38;101582.83;1812847;77;26238;-67
2022/05/18 07:00:46;;;;;;;3.95;1.37;;;;;;;14.43;41.42;101585.34;1829713;77;25677;-68
2022/05/18 07:03:14;;;;;;;3.98;1.60;;;;;;;14.65;40.49;101590.09;1829923;78;27445;-68
2022/05/18 07:05:41;;;;;;;2.10;1.52;;;;;;;14.91;40.13;101593.05;1829658;77;25642;-67
2022/05/18 07:08:08;;;;;;;3.22;1.32;;;;;;;15.14;39.67;101584.38;1829797;77;25391;-67
2022/05/18 07:10:34;;;;;;;2.15;1.00;;;;;;;15.41;39.66;101586.71;1813590;78;26232;-67
2022/05/18 07:13:01;;;;;;;2.37;1.20;;;;;;;15.66;39.10;101583.91;1829916;78;25284;-67
2022/05/18 07:15:27;;;;;;;3.90;1.12;;;;;;;15.87;38.10;101579.58;1829689;77;28089;-67
2022/05/18 07:17:53;;;;;;;3.70;1.17;;;;;;;16.10;37.51;101586.91;1829397;77;25658;-67
2022/05/18 07:20:19;;;;;;;1.92;1.00;;;;;;;16.37;37.89;101594.86;1829543;78;25387;-68
2022/05/18 07:22:45;;;;;;;7.17;1.10;;;;;;;16.66;37.55;101596.23;1829477;78;25599;-70
2022/05/18 07:25:11;;;;;;;2.47;1.30;;;;;;;17.04;36.88;101596.22;1829549;78;25613;-67
2022/05/18 07:27:39;;;;;;;9.08;1.30;;;;;;;17.35;36.04;101601.53;1813234;78;27431;-67
2022/05/18 07:30:08;;;;;;;2.60;0.82;;;;;;;17.55;34.68;101591.83;1829378;77;25760;-68
2022/05/18 07:32:34;;;;;;;3.25;1.05;;;;;;;17.76;34.53;101602.09;1829462;77;25355;-68
2022/05/18 07:35:00;;;;;;;1.35;0.78;;;;;;;18.06;33.80;101597.52;1829422;78;25482;-68
2022/05/18 07:37:26;;;;;;;1.15;1.00;;;;;;;18.20;33.15;101598.12;1829398;78;25724;-68
2022/05/18 07:39:52;;;;;;;5.95;1.20;;;;;;;18.33;32.68;101599.59;1829517;77;27379;-67
2022/05/18 07:42:18;;;;;;;2.58;0.88;;;;;;;18.51;32.99;101596.99;1829365;78;25986;-68
2022/05/18 07:44:44;;;;;;;2.77;1.00;;;;;;;18.65;32.11;101598.11;1829432;77;25742;-66
2022/05/18 07:47:11;;;;;;;3.42;1.20;;;;;;;18.80;32.20;101592.63;1829436;77;25579;-69
2022/05/18 07:49:40;;;;;;;3.47;0.78;;;;;;;19.07;31.68;101591.31;1829525;77;25392;-68
2022/05/18 07:52:08;;;;;;;3.22;1.37;;;;;;;19.23;31.42;101587.38;1829556;78;27465;-67
2022/05/18 07:54:38;;;;;;;2.55;0.98;;;;;;;19.37;31.23;101588.45;1829385;77;25779;-69
2022/05/18 07:57:09;;;;;;;4.22;1.50;;;;;;;19.62;31.17;101598.95;1829746;77;25385;-68
2022/05/18 07:59:36;;;;;;;3.83;1.50;;;;;;;19.73;30.72;101595.19;1829270;77;25618;-68
2022/05/18 08:02:03;;;;;;;3.20;1.10;;;;;;;19.95;30.51;101602.24;1829609;77;25434;-68
2022/05/18 08:04:30;;;;;;;4.45;1.10;;;;;;;20.23;29.98;101590.61;1829395;78;27463;-68
2022/05/18 08:06:56;;;;;;;4.00;1.22;;;;;;;20.46;29.82;101597.22;1829420;77;25803;-68
2022/05/18 08:09:23;;;;;;;5.33;1.50;;;;;;;20.71;29.61;101591.73;1829428;77;25557;-67
2022/05/18 08:17:22;;;;;;;2.42;1.70;;;;;;;21.54;28.44;101587.20;1829420;78;27476;-68
2022/05/18 08:19:48;;;;;;;2.65;1.00;;;;;;;21.61;27.55;101574.44;1829571;77;25472;-69
2022/05/18 08:22:17;;;;;;;2.67;1.10;;;;;;;21.72;27.81;101586.30;1829733;77;25602;-68
2022/05/18 08:24:43;;;;;;;2.85;0.90;;;;;;;21.81;26.93;101587.74;1829540;77;25530;-68
2022/05/18 08:27:14;;;;;;;6.20;1.35;;;;;;;21.94;26.89;101584.31;1829668;77;25448;-68
2022/05/18 08:29:40;;;;;;;3.10;0.70;;;;;;;22.09;27.12;101580.55;1829626;77;27336;-67
2022/05/18 08:32:08;;;;;;;3.33;1.10;;;;;;;22.32;26.72;101574.64;1829509;77;25705;-68
2022/05/18 08:34:34;;;;;;;4.28;0.90;;;;;;;22.43;26.27;101578.22;1829605;77;25628;-68
2022/05/18 08:37:00;;;;;;;5.10;0.93;;;;;;;22.59;26.09;101575.41;1829611;77;26231;-68
2022/05/18 08:39:27;;;;;;;3.05;0.95;;;;;;;22.76;25.52;101570.86;1829550;77;25622;-68
2022/05/18 08:41:57;;;;;;;4.40;1.00;;;;;;;22.85;25.62;101572.02;1829681;77;27522;-68
2022/05/18 08:44:30;;;;;;;;;;;;;;;22.99;24.86;101581.99;1832185;77;25676;-68
2022/05/18 08:47:36;;;;;;;3.20;0.90;;;;;;;23.10;24.39;101569.81;1829660;78;25657;-69
2022/05/18 08:50:16;;;;;;;4.53;1.02;;;;;;;23.25;24.33;101576.41;1829607;78;25651;-69
2022/05/18 08:53:09;;;;;;;2.75;1.05;;;;;;;23.48;24.35;101572.33;1829642;77;25541;-69
2022/05/18 08:55:53;;;;;;;1.07;0.70;;;;;;;23.80;24.15;101567.92;1828983;77;27485;-68
2022/05/18 08:58:30;;;;;;;3.35;0.68;;;;;;;23.88;23.47;101568.89;1829340;77;25452;-68
2022/05/18 09:01:05;;;;;;;2.40;0.93;;;;;;;23.89;23.10;101569.09;1828955;77;25383;-68
2022/05/18 09:03:36;;;;;;;3.83;0.80;;;;;;;23.76;22.71;101562.34;1827829;77;25595;-68
2022/05/18 09:06:23;;;;;;;6.00;0.90;;;;;;;23.77;23.01;101566.72;1829660;77;25600;-68
2022/05/18 09:10:12;;;;;;;3.62;1.02;;;;;;;23.88;22.80;101574.41;1829572;77;27519;-68
2022/05/18 09:11:23;;;;;;;2.95;1.00;;;;;;;24.07;22.96;101574.32;1827045;78;25744;-67
2022/05/18 09:13:49;;;;;;;9.48;0.80;;;;;;;24.35;22.95;101575.35;1813403;78;25425;-64
2022/05/18 09:16:30;;;;;;;1.55;1.00;;;;;;;24.46;22.62;101568.58;1829515;77;27660;-68
2022/05/18 09:19:20;;;;;;;4.50;0.90;;;;;;;24.65;22.68;101569.06;1829056;77;25509;-66
2022/05/18 09:22:08;;;;;;;4.40;1.30;;;;;;;24.70;22.32;101567.35;1828549;77;26550;-68
2022/05/18 09:25:11;;;;;;;2.50;0.63;;;;;;;24.97;22.15;101565.32;1830066;77;25708;-67
2022/05/18 09:27:45;;;;;;;2.87;0.90;;;;;;;25.30;21.90;101555.45;1829179;77;25562;-66
2022/05/18 09:30:29;;;;;;;6.45;1.15;;;;;;;25.34;21.99;101554.10;1829513;78;27705;-66
2022/05/18 09:33:06;;;;;;;5.72;0.93;;;;;;;25.42;22.32;101558.54;1829522;77;25565;-65
2022/05/18 09:36:11;;;;;;;4.08;1.05;;;;;;;25.58;22.13;101554.12;1829334;77;28058;-67
2022/05/18 09:38:52;;;;;;;1.70;0.95;;;;;;;25.65;22.78;101556.95;1752150;81;25707;-72
2022/05/18 09:41:22;;;;;;;4.15;1.05;;;;;;;25.63;22.80;101555.77;1716672;83;25744;-68
2022/05/18 09:44:06;;;;;;;1.30;0.82;;;;;;;25.63;23.37;101549.63;1698911;84;26180;-70
2022/05/18 09:46:32;;;;;;;7.58;0.98;;;;;;;25.57;24.08;101549.75;1698748;83;25572;-70
2022/05/18 09:49:06;;;;;;;6.22;0.72;;;;;;;25.42;25.10;101542.48;1698862;84;27480;-69
2022/05/18 09:51:36;;;;;;;2.47;0.80;;;;;;;25.45;24.79;101545.89;1698305;84;25845;-70
2022/05/18 09:54:04;;;;;;;3.92;0.98;;;;;;;25.42;23.78;101541.11;1663682;85;26307;-67
2022/05/18 09:56:46;;;;;;;7.93;2.53;;;;;;;25.18;23.45;101541.83;1665894;86;25733;-69
2022/05/18 09:59:17;;;;;;;6.00;1.75;;;;;;;25.06;23.71;101542.09;1666492;86;25711;-68
2022/05/18 10:07:32;;;;;;;2.58;0.98;;;;;;;25.01;23.90;101543.81;1710634;82;25854;-67
2022/05/18 10:10:13;;;;;;;6.95;1.25;;;;;;;25.09;23.65;101535.80;1696558;84;25808;-66
2022/05/18 10:13:02;;;;;;;5.70;0.98;;;;;;;25.10;23.55;101543.73;1725893;81;25635;-66
2022/05/18 10:15:42;;;;;;;5.20;0.90;;;;;;;24.79;22.93;101534.69;1742576;82;27509;-66
2022/05/18 10:18:17;;;;;;;1.55;0.90;;;;;;;24.66;23.89;101530.56;1745099;82;25736;-66
2022/05/18 10:21:01;;;;;;;3.35;1.22;;;;;;;24.59;23.60;101524.95;1725653;83;25692;-66
2022/05/18 10:23:55;;;;;;;3.08;0.90;;;;;;;24.59;22.99;101524.35;1739071;82;25722;-67
2022/05/18 10:26:38;;;;;;;3.08;0.88;;;;;;;24.32;23.25;101534.63;1725748;82;25627;-67
2022/05/18 10:29:21;;;;;;;2.62;1.07;;;;;;;24.15;22.61;101535.95;1745021;81;27464;-67
2022/05/18 10:32:11;;;;;;;1.95;0.62;;;;;;;24.09;23.17;101526.97;1725751;83;25639;-66
2022/05/18 10:34:47;;;;;;;1.10;0.68;;;;;;;24.07;22.66;101527.34;1745008;82;25688;-65
2022/05/18 10:37:25;;;;;;;4.12;0.80;;;;;;;24.13;22.96;101521.72;1725818;83;25631;-66
2022/05/18 10:39:59;;;;;;;2.80;1.00;;;;;;;24.33;23.47;101524.35;1729561;82;25706;-65
2022/05/18 10:42:31;;;;;;;2.25;0.98;;;;;;;24.63;23.26;101511.95;1715788;82;27481;-66
2022/05/18 10:45:01;;;;;;;7.20;0.72;;;;;;;24.79;22.36;101507.02;1741133;82;25610;-66
2022/05/18 10:47:33;;;;;;;2.30;0.62;;;;;;;24.86;23.30;101509.64;1744996;81;25619;-65
2022/05/18 10:50:32;;;;;;;1.95;0.68;;;;;;;24.97;22.82;101504.44;1743871;82;25458;-67
2022/05/18 10:53:18;;;;;;;;;;;;;;;25.18;22.78;101508.61;1747952;82;25529;-70
2022/05/18 10:56:05;;;;;;;3.35;0.65;;;;;;;25.38;22.20;101511.21;1737509;82;27436;-71
2022/05/18 10:58:46;;;;;;;2.12;0.85;;;;;;;25.36;21.23;101508.82;1725683;82;25692;-70
2022/05/18 11:01:29;;;;;;;3.90;0.72;;;;;;;25.50;21.59;101502.02;1741308;82;25746;-71
2022/05/18 11:04:07;;;;;;;1.37;0.50;;;;;;;25.51;20.98;101508.37;1702820;82;25676;-71
2022/05/18 11:06:38;;;;;;;3.17;1.00;;;;;;;25.55;21.37;101507.80;1760609;81;25791;-69
2022/05/18 11:09:15;;;;;;;8.38;0.75;;;;;;;25.73;21.24;101505.19;1731015;82;27467;-70
2022/05/18 11:12:00;;;;;;;1.40;0.90;;;;;;;25.80;20.00;101492.77;1745320;81;27344;-69
2022/05/18 11:14:34;;;;;;;3.83;0.60;;;;;;;25.85;20.73;101495.17;1731214;82;25728;-70
2022/05/18 11:17:44;;;;;;;1.95;0.72;;;;;;;25.82;20.53;101493.17;1760485;81;27805;-70
2022/05/18 11:20:25;;;;;;;2.22;0.80;;;;;;;25.91;21.25;101492.83;1684640;85;25684;-69
2022/05/18 11:23:00;;;;;;;2.77;0.80;;;;;;;26.05;20.46;101485.22;1682787;83;27728;-71
2022/05/18 11:25:57;;;;;;;2.10;1.17;;;;;;;26.32;19.78;101479.44;1713398;83;25762;-68
2022/05/18 11:28:46;;;;;;;2.77;0.70;;;;;;;26.63;19.41;101482.98;1697975;84;25701;-69
2022/05/18 11:31:52;;;;;;;1.12;0.78;;;;;;;26.74;18.79;101490.55;1718134;83;25752;-70
2022/05/18 11:34:29;;;;;;;1.02;0.50;;;;;;;26.91;18.56;101480.68;1717410;83;25616;-68
2022/05/18 11:37:30;;;;;;;0.93;0.68;;;;;;;27.07;18.11;101477.53;1718149;83;27461;-69
2022/05/18 11:40:33;;;;;;;0.93;0.50;;;;;;;27.19;18.06;101477.95;1718202;83;25736;-68
2022/05/18 11:43:28;;;;;;;2.20;0.50;;;;;;;27.20;18.02;101479.53;1718205;83;25465;-69
2022/05/18 11:46:05;;;;;;;1.72;0.90;;;;;;;27.20;17.93;101479.53;1718429;83;25581;-69
2022/05/18 11:49:02;;;;;;;2.67;0.78;;;;;;;27.36;17.88;101474.21;1718363;83;25889;-69
2022/05/18 11:51:58;;;;;;;1.62;0.53;;;;;;;27.43;17.58;101477.59;1718340;83;27462;-71
2022/05/18 11:55:11;;;;;;;2.45;1.02;;;;;;;27.60;17.33;101474.61;1718281;83;25502;-69
2022/05/18 11:58:15;;;;;;;2.65;0.80;;;;;;;27.67;17.42;101478.19;1761459;81;25611;-68
2022/05/18 12:00:55;;;;;;;5.90;0.78;;;;;;;27.71;17.14;101472.02;1726554;82;27602;-69
2022/05/18 12:04:07;;;;;;;1.65;0.75;;;;;;;27.81;17.31;101469.03;1744464;82;25629;-69
2022/05/18 12:07:01;;;;;;;3.42;0.88;;;;;;;27.81;17.25;101469.03;1745203;82;27573;-68
2022/05/18 12:09:53;;;;;;;6.58;1.98;;;;;;;27.98;17.20;101463.27;1742197;82;25838;-68
2022/05/18 12:12:53;;;;;;;1.05;0.60;;;;;;;28.28;16.92;101467.54;1745239;81;25698;-70